Flight Track Log - Related Links

Times and Time Zones

All times are in EDT time to prevent confusion due to time zone crossing. See the UAL4553 flight status page for this flight to view local times or setup timezone preferences in your user account.

Time Position Orientation Groundspeed Altitude Reporting Facility
EDT Latitude Longitude Course Direction KTS MPH feet Rate Location/Type
Thu 06:57:01 PM 34.9531 -82.1864 26° Northeast 181 208 3,800  Level Atlanta Center
Thu 06:58:01 PM 34.9644 -82.2519 282° West 115 132 6,000 2,100 Climbing Atlanta Center
Thu 06:59:00 PM 34.5860 -82.5661 223° Southwest  Level FlightAware Approximate
Thu 06:59:01 PM 34.9028 -82.3114 218° Southwest 128 147 8,000  Level Atlanta Center
Thu 07:00:00 PM 34.5098 -82.6531 223° Southwest  Level FlightAware Approximate
Thu 07:00:01 PM 34.8431 -82.3736 221° Southwest 213 245 10,200  Level Atlanta Center
Thu 07:01:00 PM 34.4405 -82.7476 231° Southwest  Level FlightAware Approximate
Thu 07:01:01 PM 34.7711 -82.4458 220° Southwest 283 326 10,800  Level Atlanta Center
Thu 07:02:01 PM 34.6947 -82.5153 217° Southwest 334 384 12,600 1,650 Climbing Atlanta Center
Thu 07:03:01 PM 34.6328 -82.5747 218° Southwest 354 407 14,100 1,550 Climbing Atlanta Center
Thu 07:04:01 PM 34.5483 -82.6592 219° Southwest 361 415 15,700 1,450 Climbing Atlanta Center
Thu 07:05:01 PM 34.4697 -82.7386 220° Southwest 367 422 17,000 1,150 Climbing Atlanta Center
Thu 07:06:01 PM 34.3917 -82.8406 227° Southwest 372 428 18,000 1,000 Climbing Atlanta Center
Thu 07:07:01 PM 34.3383 -82.9519 240° Southwest 384 442 19,000 700 Climbing Atlanta Center
Thu 07:08:01 PM 34.2789 -83.0683 238° Southwest 406 467 19,400 950 Climbing Atlanta Center
Thu 07:09:01 PM 34.2108 -83.1797 234° Southwest 411 473 20,900 1,750 Climbing Atlanta Center
Thu 07:10:01 PM 34.1447 -83.2833 232° Southwest 410 472 22,900 1,800 Climbing Atlanta Center
Thu 07:11:01 PM 34.0806 -83.3817 232° Southwest 391 450 24,500 1,600 Climbing Atlanta Center
Thu 07:12:01 PM 34.0206 -83.4800 234° Southwest 379 436 26,100 1,600 Climbing Atlanta Center
Thu 07:13:01 PM 33.9583 -83.5781 233° Southwest 379 436 27,700 1,550 Climbing Atlanta Center
Thu 07:14:01 PM 33.8958 -83.6683 230° Southwest 362 417 29,200 1,400 Climbing Atlanta Center
Thu 07:15:01 PM 33.8272 -83.7311 217° Southwest 349 402 30,500 1,350 Climbing Atlanta Center
Thu 07:16:01 PM 33.7503 -83.7964 215° Southwest 349 402 31,900 1,200 Climbing Atlanta Center
Thu 07:17:01 PM 33.6856 -83.8839 228° Southwest 349 402 32,900 950 Climbing Atlanta Center
Thu 07:18:01 PM 33.6253 -83.9814 233° Southwest 363 418 33,800 950 Climbing Atlanta Center
Thu 07:19:01 PM 33.5564 -84.0936 234° Southwest 381 438 34,800 1,000 Climbing Atlanta Center
Thu 07:20:01 PM 33.4936 -84.1933 233° Southwest 381 438 35,800 600 Climbing Atlanta Center
Thu 07:21:01 PM 33.4286 -84.2953 233° Southwest 386 444 36,000 100 Climbing Atlanta Center
Thu 07:22:01 PM 33.3575 -84.4044 232° Southwest 404 465 36,000  Level Atlanta Center
Thu 07:23:01 PM 33.2881 -84.5208 235° Southwest 426 490 36,000  Level Atlanta Center
Thu 07:24:01 PM 33.2125 -84.6397 233° Southwest 440 506 36,000  Level Atlanta Center
Thu 07:25:01 PM 33.1389 -84.7558 233° Southwest 448 516 36,000  Level Atlanta Center
Thu 07:26:01 PM 33.0736 -84.8594 233° Southwest 448 516 36,000  Level Atlanta Center
Thu 07:27:01 PM 32.9997 -84.9750 233° Southwest 448 516 36,000  Level Atlanta Center
Thu 07:28:01 PM 32.9278 -85.0881 233° Southwest 443 510 36,000  Level Atlanta Center
Thu 07:29:01 PM 32.8494 -85.2058 232° Southwest 433 498 36,000  Level Atlanta Center
Thu 07:30:01 PM 32.7775 -85.3161 232° Southwest 427 491 36,000  Level Atlanta Center
Thu 07:31:01 PM 32.7031 -85.4261 231° Southwest 427 491 36,000  Level Atlanta Center
Thu 07:32:01 PM 32.6331 -85.5386 234° Southwest 427 491 36,000  Level Atlanta Center
Thu 07:33:01 PM 32.5606 -85.6506 232° Southwest 427 491 36,000  Level Atlanta Center
Thu 07:34:01 PM 32.4881 -85.7600 232° Southwest 432 497 36,000  Level Atlanta Center
Thu 07:35:01 PM 32.4156 -85.8744 233° Southwest 432 497 36,000  Level Atlanta Center
Thu 07:36:01 PM 32.3408 -85.9811 230° Southwest 432 497 36,000  Level Atlanta Center
Thu 07:37:01 PM 32.2703 -86.0925 233° Southwest 427 491 36,000  Level Atlanta Center
Thu 07:38:01 PM 32.2036 -86.2039 235° Southwest 427 491 36,000  Level Atlanta Center
Thu 07:39:01 PM 32.1306 -86.3125 232° Southwest 427 491 36,000  Level Atlanta Center
Thu 07:40:01 PM 32.0575 -86.4208 232° Southwest 435 501 36,000  Level Atlanta Center
Thu 07:41:01 PM 31.9867 -86.5292 232° Southwest 430 495 36,000  Level Atlanta Center
Thu 07:42:01 PM 31.9158 -86.6225 228° Southwest 430 495 36,000  Level Atlanta Center
Thu 07:43:01 PM 31.8447 -86.7306 232° Southwest 425 489 36,000  Level Atlanta Center
Thu 07:44:01 PM 31.7711 -86.8408 232° Southwest 425 489 36,000  Level Atlanta Center
Thu 07:45:01 PM 31.7019 -86.9458 232° Southwest 425 489 36,000  Level Atlanta Center
Thu 07:46:01 PM 31.6261 -87.0631 233° Southwest 425 489 36,000  Level Atlanta Center
Thu 07:47:50 PM 31.4889 -87.2542 230° Southwest 420 483 36,000  Level Houston Center
Thu 07:48:51 PM 31.4156 -87.3614 231° Southwest 422 486 36,000  Level Houston Center
Thu 07:49:53 PM 31.3431 -87.4681 232° Southwest 420 483 36,000  Level Houston Center
Thu 07:50:55 PM 31.2697 -87.5744 231° Southwest 420 483 36,000  Level Houston Center
Thu 07:51:57 PM 31.1978 -87.6806 232° Southwest 417 480 36,000  Level Houston Center
Thu 07:52:59 PM 31.1258 -87.7842 231° Southwest 420 483 36,000  Level Houston Center
Thu 07:54:01 PM 31.0381 -87.9106 231° Southwest 421 484 36,000  Level Houston Center
Thu 07:55:02 PM 30.9647 -88.0167 231° Southwest 422 486 36,000  Level Houston Center
Thu 07:56:04 PM 30.8900 -88.1211 230° Southwest 421 484 36,000  Level Houston Center
Thu 07:57:06 PM 30.8264 -88.2347 237° Southwest 419 482 36,000  Level Houston Center
Thu 07:58:08 PM 30.7881 -88.3631 251° West 421 484 36,000  Level Houston Center
Thu 07:59:10 PM 30.7475 -88.4917 250° West 423 487 36,000  Level Houston Center
Thu 08:00:12 PM 30.7036 -88.6350 250° West 426 490 36,000  Level Houston Center
Thu 08:01:13 PM 30.6636 -88.7644 250° West 426 490 36,000  Level Houston Center
Thu 08:02:15 PM 30.6233 -88.8939 250° West 428 493 36,000 -48 Level Houston Center
Thu 08:03:17 PM 30.5797 -89.0339 250° West 426 490 35,900  Descending Houston Center
Thu 08:04:19 PM 30.5403 -89.1633 251° West 427 491 36,000 48 Climbing Houston Center
Thu 08:05:21 PM 30.5000 -89.2911 250° West 424 488 36,000  Level Houston Center
Thu 08:06:23 PM 30.4614 -89.4194 251° West 423 487 36,000  Level Houston Center
Thu 08:07:24 PM 30.4292 -89.5719 256° West 408 470 36,000  Level Houston Center
Thu 08:08:26 PM 30.4278 -89.6994 269° West 399 459 36,000  Level Houston Center
Thu 08:09:28 PM 30.4178 -89.8194 265° West 399 459 36,000  Level Houston Center
Thu 08:10:30 PM 30.4236 -89.9467 273° West 397 457 36,000  Level Houston Center
Thu 08:11:32 PM 30.4375 -90.0928 276° West 387 445 36,000  Level Houston Center
Thu 08:12:33 PM 30.4581 -90.2131 281° West 382 440 36,000  Level Houston Center
Thu 08:13:35 PM 30.4739 -90.3361 279° West 385 443 36,000  Level Houston Center
Thu 08:14:37 PM 30.4758 -90.4656 271° West 398 458 36,000  Level Houston Center
Thu 08:15:39 PM 30.4731 -90.5953 269° West 403 464 36,000  Level Houston Center
Thu 08:16:41 PM 30.4614 -90.7264 264° West 407 468 36,000  Level Houston Center
Thu 08:17:42 PM 30.3903 -90.8644 239° Southwest 411 473 36,000  Level Houston Center
Thu 08:18:44 PM 30.3258 -90.9736 236° Southwest 411 473 36,000  Level Houston Center
Thu 08:19:46 PM 30.2636 -91.0828 237° Southwest 408 470 36,000  Level Houston Center
Thu 08:20:48 PM 30.1997 -91.1919 236° Southwest 409 471 36,000  Level Houston Center
Thu 08:21:50 PM 30.1361 -91.3031 237° Southwest 414 476 36,000  Level Houston Center
Thu 08:22:52 PM 30.0719 -91.4125 236° Southwest 414 476 36,000  Level Houston Center
Thu 08:23:54 PM 29.9953 -91.5456 236° Southwest 415 478 36,000  Level Houston Center
Thu 08:24:56 PM 29.9308 -91.6567 236° Southwest 416 479 36,000  Level Houston Center
Thu 08:25:58 PM 29.8681 -91.7611 235° Southwest 418 481 36,000  Level Houston Center
Thu 08:27:00 PM 29.8033 -91.8731 236° Southwest 422 486 36,000  Level Houston Center
Thu 08:28:02 PM 29.7236 -92.0075 236° Southwest 422 486 36,000 -48 Level Houston Center
Thu 08:29:04 PM 29.6567 -92.1203 236° Southwest 425 489 35,900  Descending Houston Center
Thu 08:30:06 PM 29.5925 -92.2294 236° Southwest 416 479 36,000 48 Climbing Houston Center
Thu 08:31:08 PM 29.5292 -92.3358 236° Southwest 407 468 36,000  Level Houston Center
Thu 08:32:10 PM 29.4672 -92.4439 237° Southwest 404 465 36,000  Level Houston Center
Thu 08:33:12 PM 29.4622 -92.5664 267° West 392 451 36,000  Level Houston Center
Thu 08:34:15 PM 29.4669 -92.6919 273° West 393 452 36,000 -336 Level Houston Center
Thu 08:35:17 PM 29.4742 -92.8447 273° West 399 459 35,300 -1,161 Descending Houston Center
Thu 08:36:19 PM 29.4806 -92.9739 273° West 404 465 33,600 -1,887 Descending Houston Center
Thu 08:37:21 PM 29.4861 -93.1031 273° West 404 465 31,400 -2,081 Descending Houston Center
Thu 08:38:23 PM 29.4919 -93.2386 273° West 420 483 29,300 -2,146 Descending Houston Center
Thu 08:39:24 PM 29.4978 -93.3750 273° West 426 490 27,000 -2,195 Descending Houston Center
Thu 08:40:26 PM 29.5031 -93.5125 273° West 430 495 24,800 -2,177 Descending Houston Center
Thu 08:41:28 PM 29.5081 -93.6492 272° West 428 493 22,500 -2,419 Descending Houston Center
Thu 08:42:30 PM 29.5142 -93.8100 273° West 422 486 19,800 -2,323 Descending Houston Center
Thu 08:43:32 PM 29.5189 -93.9369 272° West 408 470 17,700 -2,112 Descending Houston Center
Thu 08:44:35 PM 29.5236 -94.0569 273° West 389 448 15,400 -2,217 Descending Houston Center
Thu 08:45:04 PM 29.5264 -94.1203 273° West 373 429 14,300 -1,935 Descending Houston Center
Thu 08:45:37 PM 29.5278 -94.1744 272° West 375 432 13,400 -1,444 Descending Houston Center
Thu 08:45:58 PM 29.5283 -94.2233 271° West 314 361 13,000 -484 Descending Houston Center
Thu 08:46:39 PM 29.5314 -94.2883 273° West 329 379 12,900 -97 Descending Houston Center
Thu 08:47:00 PM 29.5328 -94.3286 272° West 328 377 12,900 -387 Level Houston Center
Thu 08:47:41 PM 29.5550 -94.3889 293° West 335 386 12,500 -816 Descending Houston Center
Thu 08:48:43 PM 29.5908 -94.4772 295° West 312 359 11,500 -1,016 Descending Houston Center
Thu 08:49:45 PM 29.6406 -94.5464 310° West 290 334 10,400 -1,050 Descending Houston Center
Thu 08:50:03 PM 29.6617 -94.5717 314° West 275 316 10,100 -871 Descending Houston Center
Thu 08:50:47 PM 29.6958 -94.6056 319° Northwest 275 316 9,500 -1,075 Descending Houston Center
Thu 08:51:49 PM 29.7625 -94.6731 319° Northwest 269 310 8,200 -1,113 Descending Houston Center
Thu 08:52:51 PM 29.8167 -94.7303 317° Northwest 266 306 7,200 -585 Descending Houston Center
Thu 08:53:52 PM 29.8700 -94.7858 318° Northwest 261 300 7,000 -341 Descending Houston Center
Thu 08:54:54 PM 29.9217 -94.8394 318° Northwest 254 292 6,500 -726 Descending Houston Center
Thu 08:55:56 PM 29.9656 -94.9003 310° West 250 288 5,500 -780 Descending Houston Center
Thu 08:56:57 PM 29.9969 -94.9725 297° West 258 297 4,900 -488 Descending Houston Center
Thu 08:57:59 PM 29.9931 -95.0678 267° West 250 288 4,500 -823 Descending Houston Center
Thu 08:59:01 PM 29.9919 -95.1492 269° West 248 285 3,200 -1,220 Descending Houston Center
Thu 09:00:02 PM 29.9936 -95.2186 272° West 239 275 2,000 -1,180 Descending Houston Center

Login

Don't have an account? Register now (free) for customized features, flight alerts, and more!